Time;durP1;ratioP1;P1;durP2;ratioP2;P2;SDS_P1;SDS_P2;PMS_P1;PMS_P2;Temp;Humidity;BMP_temperature;BMP_pressure;BME280_temperature;BME280_humidity;BME280_pressure;Samples;Min_cycle;Max_cycle;Signal;HPM_P1;HPM_P2
2023/02/10 00:00:44;;;;;;;28.98;16.52;;;;;;;;;;4998245;28;20491;-73
2023/02/10 00:03:10;;;;;;;26.15;15.32;;;;;;;;;;4982641;28;20392;-73
2023/02/10 00:05:35;;;;;;;27.08;15.07;;;;;;;;;;5016376;28;20109;-70
2023/02/10 00:08:00;;;;;;;27.00;14.80;;;;;;;;;;5016267;28;20038;-73
2023/02/10 00:10:26;;;;;;;29.42;15.07;;;;;;;;;;4998676;28;20357;-72
2023/02/10 00:12:51;;;;;;;26.33;15.10;;;;;;;;;;5016230;28;20115;-73
2023/02/10 00:15:16;;;;;;;30.13;16.83;;;;;;;;;;5016154;28;20030;-73
2023/02/10 00:17:42;;;;;;;36.33;19.42;;;;;;;;;;5016271;28;20449;-74
2023/02/10 00:20:13;;;;;;;36.45;19.67;;;;;;;;;;4998664;28;20122;-73
2023/02/10 00:22:38;;;;;;;41.90;23.38;;;;;;;;;;5016129;28;20579;-75
2023/02/10 00:25:04;;;;;;;39.72;22.52;;;;;;;;;;5015882;28;20057;-74
2023/02/10 00:27:29;;;;;;;40.55;22.65;;;;;;;;;;5015579;28;20077;-71
2023/02/10 00:29:54;;;;;;;38.90;22.15;;;;;;;;;;5015850;28;20476;-70
2023/02/10 00:32:20;;;;;;;35.42;20.30;;;;;;;;;;4998229;28;20478;-74
2023/02/10 00:34:45;;;;;;;34.38;20.50;;;;;;;;;;4998333;28;20076;-77
2023/02/10 00:37:12;;;;;;;42.65;22.25;;;;;;;;;;4998067;28;20030;-74
2023/02/10 00:39:38;;;;;;;38.40;20.85;;;;;;;;;;5015794;28;20036;-75
2023/02/10 00:42:03;;;;;;;36.42;20.48;;;;;;;;;;5015584;28;20026;-72
2023/02/10 00:44:29;;;;;;;38.47;20.83;;;;;;;;;;4997893;28;20103;-72
2023/02/10 00:47:01;;;;;;;38.97;21.73;;;;;;;;;;5015325;28;20079;-72
2023/02/10 00:49:26;;;;;;;42.03;22.48;;;;;;;;;;4997948;28;20056;-74
2023/02/10 00:51:51;;;;;;;43.35;23.27;;;;;;;;;;4997996;28;20452;-73
2023/02/10 00:54:17;;;;;;;48.60;24.70;;;;;;;;;;5015356;28;20029;-74
2023/02/10 00:56:44;;;;;;;53.17;25.70;;;;;;;;;;4997908;28;20030;-74
2023/02/10 00:59:12;;;;;;;53.72;26.13;;;;;;;;;;4998065;28;20037;-70
2023/02/10 01:01:38;;;;;;;44.15;23.63;;;;;;;;;;4997782;28;20121;-70
2023/02/10 01:04:04;;;;;;;41.25;23.02;;;;;;;;;;4997954;28;20045;-71
2023/02/10 01:06:31;;;;;;;43.55;23.10;;;;;;;;;;4981158;28;20138;-71
2023/02/10 01:08:56;;;;;;;45.38;22.88;;;;;;;;;;4997776;28;20022;-71
2023/02/10 01:11:24;;;;;;;49.95;24.23;;;;;;;;;;5014670;28;20021;-74
2023/02/10 01:13:49;;;;;;;52.75;24.92;;;;;;;;;;4980969;28;20199;-75
2023/02/10 01:16:16;;;;;;;44.72;23.50;;;;;;;;;;4997183;28;20086;-71
2023/02/10 01:18:42;;;;;;;48.42;26.00;;;;;;;;;;4997261;28;20030;-71
2023/02/10 01:21:08;;;;;;;48.80;24.35;;;;;;;;;;4997102;28;20494;-73
2023/02/10 01:23:33;;;;;;;46.40;23.95;;;;;;;;;;5014713;28;20038;-71
2023/02/10 01:26:00;;;;;;;44.38;22.83;;;;;;;;;;4997167;28;20036;-71
2023/02/10 01:28:25;;;;;;;40.15;21.95;;;;;;;;;;5014657;28;20424;-71
2023/02/10 01:30:50;;;;;;;39.88;20.70;;;;;;;;;;5014839;28;20026;-70
2023/02/10 01:33:17;;;;;;;39.75;21.27;;;;;;;;;;5014553;28;20441;-67
2023/02/10 01:35:42;;;;;;;41.55;22.58;;;;;;;;;;4996982;28;20030;-69
2023/02/10 01:38:07;;;;;;;40.75;21.40;;;;;;;;;;4997197;28;20096;-69
2023/02/10 01:40:33;;;;;;;41.28;22.15;;;;;;;;;;5014656;28;20033;-69
2023/02/10 01:42:58;;;;;;;40.65;21.55;;;;;;;;;;4997063;28;20034;-69
2023/02/10 01:45:23;;;;;;;44.83;23.80;;;;;;;;;;5014690;28;20030;-69
2023/02/10 01:47:51;;;;;;;48.92;24.92;;;;;;;;;;4996757;28;20630;-69
2023/02/10 01:50:19;;;;;;;40.67;22.83;;;;;;;;;;5014715;28;20065;-67
2023/02/10 01:52:45;;;;;;;34.45;19.77;;;;;;;;;;4980242;28;20105;-68
2023/02/10 01:55:14;;;;;;;38.28;20.70;;;;;;;;;;5013918;28;20113;-67
2023/02/10 01:57:42;;;;;;;33.00;19.60;;;;;;;;;;5013860;28;20065;-67
2023/02/10 02:00:07;;;;;;;38.85;20.08;;;;;;;;;;4996506;28;20105;-68
2023/02/10 02:02:40;;;;;;;36.38;19.48;;;;;;;;;;5014147;28;20045;-67
2023/02/10 02:05:06;;;;;;;33.42;18.42;;;;;;;;;;5014087;28;20030;-68
2023/02/10 02:07:33;;;;;;;32.67;19.27;;;;;;;;;;5014196;28;20018;-69
2023/02/10 02:10:00;;;;;;;28.25;17.98;;;;;;;;;;5013921;28;20030;-68
2023/02/10 02:12:30;;;;;;;29.85;18.02;;;;;;;;;;5013902;28;20064;-69
2023/02/10 02:15:06;;;;;;;29.58;17.45;;;;;;;;;;4996348;28;20038;-68
2023/02/10 02:17:38;;;;;;;29.35;18.30;;;;;;;;;;5013854;28;20030;-68
2023/02/10 02:23:04;;;;;;;28.20;17.60;;;;;;;;;;5015740;28;19909;-68
2023/02/10 02:25:48;;;;;;;28.38;17.48;;;;;;;;;;5001736;28;20057;-68
2023/02/10 02:28:42;;;;;;;27.90;16.50;;;;;;;;;;4985370;28;20125;-68
2023/02/10 02:31:27;;;;;;;26.45;16.23;;;;;;;;;;4967260;28;20043;-68
2023/02/10 02:33:57;;;;;;;27.85;16.05;;;;;;;;;;4976672;28;20495;-69
2023/02/10 02:36:34;;;;;;;22.42;15.40;;;;;;;;;;4976512;28;20037;-69
2023/02/10 02:39:00;;;;;;;26.50;15.30;;;;;;;;;;4976744;28;20039;-67
2023/02/10 02:41:26;;;;;;;24.80;15.10;;;;;;;;;;4976590;28;20077;-68
2023/02/10 02:43:52;;;;;;;19.80;13.55;;;;;;;;;;4976532;28;20500;-68
2023/02/10 02:46:31;;;;;;;22.27;13.88;;;;;;;;;;4994424;28;20038;-67
2023/02/10 02:49:23;;;;;;;24.88;15.00;;;;;;;;;;4976663;28;20460;-67
2023/02/10 02:52:05;;;;;;;24.70;14.07;;;;;;;;;;4994015;28;20023;-68
2023/02/10 02:54:40;;;;;;;22.90;14.02;;;;;;;;;;4994241;28;20444;-68
2023/02/10 02:57:14;;;;;;;21.60;13.15;;;;;;;;;;4976642;28;20043;-69
2023/02/10 02:59:42;;;;;;;23.40;15.25;;;;;;;;;;4976604;28;20053;-73
2023/02/10 03:02:11;;;;;;;21.73;14.45;;;;;;;;;;4976798;28;20062;-74
2023/02/10 03:04:36;;;;;;;24.15;15.15;;;;;;;;;;4976669;28;20036;-74
2023/02/10 03:07:03;;;;;;;24.35;16.58;;;;;;;;;;4976573;28;20121;-74
2023/02/10 03:09:29;;;;;;;27.95;17.08;;;;;;;;;;4976653;28;20042;-73
2023/02/10 03:11:54;;;;;;;30.48;18.75;;;;;;;;;;4994067;28;20018;-73
2023/02/10 03:14:19;;;;;;;23.95;15.95;;;;;;;;;;4994094;28;20041;-70
2023/02/10 03:16:45;;;;;;;22.23;14.80;;;;;;;;;;4993555;28;20030;-69
2023/02/10 03:19:10;;;;;;;21.35;15.27;;;;;;;;;;4976916;28;20022;-70
2023/02/10 03:21:37;;;;;;;22.58;13.85;;;;;;;;;;4994012;28;20034;-70
2023/02/10 03:24:02;;;;;;;24.00;15.27;;;;;;;;;;4993969;28;20030;-73
2023/02/10 03:26:28;;;;;;;21.17;14.73;;;;;;;;;;4993989;28;20358;-71
2023/02/10 03:28:53;;;;;;;24.85;14.63;;;;;;;;;;5009861;28;20038;-71
2023/02/10 03:31:19;;;;;;;23.25;15.10;;;;;;;;;;4996060;28;20037;-72
2023/02/10 03:33:44;;;;;;;22.50;14.82;;;;;;;;;;5015149;28;20026;-72
2023/02/10 03:36:10;;;;;;;24.40;15.45;;;;;;;;;;5016971;28;20021;-72
2023/02/10 03:38:35;;;;;;;22.77;14.27;;;;;;;;;;5017157;28;20444;-72
2023/02/10 03:41:01;;;;;;;21.55;14.50;;;;;;;;;;5017037;28;20410;-75
2023/02/10 03:43:29;;;;;;;22.35;14.80;;;;;;;;;;4982755;28;20423;-75
2023/02/10 03:45:54;;;;;;;22.48;14.93;;;;;;;;;;5016951;28;20144;-73
2023/02/10 03:48:21;;;;;;;23.67;15.40;;;;;;;;;;5016929;28;20529;-76
2023/02/10 03:50:47;;;;;;;23.52;14.65;;;;;;;;;;4999053;28;20029;-74
2023/02/10 03:53:14;;;;;;;21.98;14.85;;;;;;;;;;5016563;28;20080;-73
2023/02/10 03:55:39;;;;;;;21.40;14.00;;;;;;;;;;5016799;28;20038;-70
2023/02/10 03:58:05;;;;;;;22.13;15.38;;;;;;;;;;5016399;28;20032;-69
2023/02/10 04:00:31;;;;;;;21.55;13.98;;;;;;;;;;5016212;28;20076;-69
2023/02/10 04:02:57;;;;;;;21.20;14.32;;;;;;;;;;5016427;28;20063;-70
2023/02/10 04:05:22;;;;;;;21.95;14.80;;;;;;;;;;5016392;28;20116;-70
2023/02/10 04:07:55;;;;;;;22.42;14.88;;;;;;;;;;5016511;28;20041;-74
2023/02/10 04:10:21;;;;;;;21.65;14.15;;;;;;;;;;5016772;28;20042;-74
2023/02/10 04:12:47;;;;;;;21.42;14.55;;;;;;;;;;5016153;28;20112;-75
2023/02/10 04:15:12;;;;;;;21.08;14.27;;;;;;;;;;5016287;28;20033;-74
2023/02/10 04:17:37;;;;;;;27.08;15.55;;;;;;;;;;4998651;28;20164;-74
2023/02/10 04:20:03;;;;;;;25.50;15.25;;;;;;;;;;4998474;28;20026;-69
2023/02/10 04:22:28;;;;;;;24.15;14.88;;;;;;;;;;5016326;28;20492;-69
2023/02/10 04:24:53;;;;;;;24.02;14.77;;;;;;;;;;5015927;28;20431;-69
2023/02/10 04:27:19;;;;;;;21.52;14.90;;;;;;;;;;5015705;28;20133;-69
2023/02/10 04:29:44;;;;;;;23.30;15.13;;;;;;;;;;4994977;28;20019;-69
2023/02/10 04:32:09;;;;;;;21.60;14.57;;;;;;;;;;4995700;28;20034;-71
2023/02/10 04:34:35;;;;;;;20.52;13.90;;;;;;;;;;4996270;28;20067;-72
2023/02/10 04:37:00;;;;;;;24.40;15.05;;;;;;;;;;5004903;28;20391;-70
2023/02/10 04:39:26;;;;;;;22.60;15.10;;;;;;;;;;5014926;28;20037;-71
2023/02/10 04:41:51;;;;;;;21.05;14.88;;;;;;;;;;5015502;28;20032;-70
2023/02/10 04:44:16;;;;;;;23.02;15.10;;;;;;;;;;5015523;28;20083;-74
2023/02/10 04:46:44;;;;;;;27.35;16.30;;;;;;;;;;5014834;28;20337;-75
2023/02/10 04:49:09;;;;;;;27.33;17.00;;;;;;;;;;5015779;28;20022;-75
2023/02/10 04:51:36;;;;;;;34.95;23.35;;;;;;;;;;5015722;28;20041;-74
2023/02/10 04:54:02;;;;;;;46.78;28.80;;;;;;;;;;5015063;28;20030;-71
2023/02/10 04:56:29;;;;;;;34.25;23.45;;;;;;;;;;5015672;28;20029;-71
2023/02/10 04:58:54;;;;;;;35.17;21.98;;;;;;;;;;5015233;28;20037;-70
2023/02/10 05:01:21;;;;;;;32.78;20.80;;;;;;;;;;4997589;28;20117;-71
2023/02/10 05:03:46;;;;;;;27.67;18.73;;;;;;;;;;5014861;28;20105;-71
2023/02/10 05:06:13;;;;;;;27.48;17.85;;;;;;;;;;5015222;28;20460;-71
2023/02/10 05:08:42;;;;;;;28.58;17.80;;;;;;;;;;4997651;28;20038;-70
2023/02/10 05:11:08;;;;;;;26.77;17.58;;;;;;;;;;4997613;28;20026;-71
2023/02/10 05:13:34;;;;;;;28.80;17.70;;;;;;;;;;5014929;28;20017;-72
2023/02/10 05:15:59;;;;;;;26.77;17.40;;;;;;;;;;5014009;28;20510;-71
2023/02/10 05:18:24;;;;;;;27.80;18.10;;;;;;;;;;5012629;28;20026;-71
2023/02/10 05:20:50;;;;;;;31.08;17.77;;;;;;;;;;5013824;28;20041;-69
2023/02/10 05:23:15;;;;;;;26.70;17.33;;;;;;;;;;5014945;28;20092;-70
2023/02/10 05:25:42;;;;;;;27.35;17.52;;;;;;;;;;5015100;28;20065;-71
2023/02/10 05:28:08;;;;;;;27.38;17.38;;;;;;;;;;5024459;23;20469;-70
2023/02/10 05:30:33;;;;;;;27.40;18.85;;;;;;;;;;4996975;28;20069;-71
2023/02/10 05:32:58;;;;;;;30.23;19.90;;;;;;;;;;5016126;28;20105;-72
2023/02/10 05:35:24;;;;;;;38.25;23.98;;;;;;;;;;5033811;28;20361;-70
2023/02/10 05:37:49;;;;;;;37.33;23.23;;;;;;;;;;5031325;28;20065;-71
2023/02/10 05:40:14;;;;;;;39.15;21.98;;;;;;;;;;5032382;28;20067;-71
2023/02/10 05:42:40;;;;;;;39.88;21.80;;;;;;;;;;5029659;28;20037;-72
2023/02/10 05:45:06;;;;;;;41.63;22.67;;;;;;;;;;5029370;28;20511;-71
2023/02/10 05:47:31;;;;;;;42.05;22.15;;;;;;;;;;5029018;28;20072;-71
2023/02/10 05:49:56;;;;;;;33.78;19.85;;;;;;;;;;5028469;28;20036;-71
2023/02/10 05:52:22;;;;;;;42.15;22.90;;;;;;;;;;5030587;28;20045;-72
2023/02/10 05:54:47;;;;;;;38.00;21.75;;;;;;;;;;5028486;28;20029;-70
2023/02/10 05:57:12;;;;;;;40.67;21.05;;;;;;;;;;5030674;28;20499;-72
2023/02/10 05:59:38;;;;;;;46.38;25.20;;;;;;;;;;5031166;28;20065;-69
2023/02/10 06:02:03;;;;;;;57.67;27.98;;;;;;;;;;5031551;28;20021;-68
2023/02/10 06:04:28;;;;;;;83.47;36.08;;;;;;;;;;5030003;28;20463;-68
2023/02/10 06:06:54;;;;;;;88.20;38.35;;;;;;;;;;5030789;28;20329;-69
2023/02/10 06:09:22;;;;;;;83.82;36.83;;;;;;;;;;5029559;28;20084;-69
2023/02/10 06:11:49;;;;;;;84.38;36.53;;;;;;;;;;5031154;28;20041;-69
2023/02/10 06:14:14;;;;;;;57.78;30.73;;;;;;;;;;5030836;28;20329;-69
2023/02/10 06:16:41;;;;;;;40.28;22.92;;;;;;;;;;5032609;28;20037;-69
2023/02/10 06:19:06;;;;;;;37.38;21.75;;;;;;;;;;5031723;28;20056;-69
2023/02/10 06:21:31;;;;;;;36.30;22.02;;;;;;;;;;5031123;28;20107;-75
2023/02/10 06:23:57;;;;;;;36.65;22.42;;;;;;;;;;5032392;28;20030;-74
2023/02/10 06:26:22;;;;;;;33.70;22.17;;;;;;;;;;5032869;28;20029;-75
2023/02/10 06:28:48;;;;;;;37.83;23.58;;;;;;;;;;5067106;28;20052;-75
2023/02/10 06:31:13;;;;;;;34.88;22.58;;;;;;;;;;5055502;28;20115;-75
2023/02/10 06:33:39;;;;;;;38.35;23.48;;;;;;;;;;5054543;28;20012;-75
2023/02/10 06:36:05;;;;;;;30.17;19.50;;;;;;;;;;5054574;28;20493;-74
2023/02/10 06:38:35;;;;;;;36.42;21.20;;;;;;;;;;5073470;28;20037;-75
2023/02/10 06:41:00;;;;;;;41.72;23.42;;;;;;;;;;5055497;28;20036;-75
2023/02/10 06:43:26;;;;;;;39.72;25.58;;;;;;;;;;5055398;28;20021;-74
2023/02/10 06:45:51;;;;;;;47.75;28.30;;;;;;;;;;5073081;28;20132;-75
2023/02/10 06:48:17;;;;;;;37.72;23.50;;;;;;;;;;5073407;28;20033;-75
2023/02/10 06:50:42;;;;;;;41.45;24.65;;;;;;;;;;5073981;28;20028;-75
2023/02/10 06:53:08;;;;;;;35.83;21.92;;;;;;;;;;5055483;28;20037;-75
2023/02/10 06:55:34;;;;;;;40.75;24.80;;;;;;;;;;5071826;28;20020;-75
2023/02/10 06:58:00;;;;;;;43.45;25.30;;;;;;;;;;5053785;28;20475;-75
2023/02/10 07:00:26;;;;;;;43.42;27.23;;;;;;;;;;5071685;28;20409;-75
2023/02/10 07:02:52;;;;;;;49.33;27.65;;;;;;;;;;5071580;28;20040;-75
2023/02/10 07:05:17;;;;;;;47.72;26.50;;;;;;;;;;5071546;28;20413;-75
2023/02/10 07:07:43;;;;;;;43.13;27.35;;;;;;;;;;5071574;28;20036;-75
2023/02/10 07:10:08;;;;;;;48.17;30.02;;;;;;;;;;5057575;28;20391;-75
2023/02/10 07:12:34;;;;;;;46.00;29.50;;;;;;;;;;5075342;28;20458;-75
2023/02/10 07:14:59;;;;;;;46.58;28.55;;;;;;;;;;5075265;28;20021;-71
2023/02/10 07:17:24;;;;;;;45.15;27.27;;;;;;;;;;5058903;28;20421;-72
2023/02/10 07:19:50;;;;;;;39.55;25.52;;;;;;;;;;5059548;28;20032;-72
2023/02/10 07:22:15;;;;;;;41.67;25.50;;;;;;;;;;5077023;28;20028;-70
2023/02/10 07:24:40;;;;;;;40.70;24.98;;;;;;;;;;5059032;28;20044;-72
2023/02/10 07:27:06;;;;;;;36.05;23.08;;;;;;;;;;5098567;22;20370;-74
2023/02/10 07:29:32;;;;;;;36.95;23.88;;;;;;;;;;5101714;23;20106;-75
2023/02/10 07:32:00;;;;;;;32.15;21.60;;;;;;;;;;5097396;28;20057;-75
2023/02/10 07:34:26;;;;;;;35.08;22.05;;;;;;;;;;5074844;23;20409;-75
2023/02/10 07:36:53;;;;;;;33.58;21.50;;;;;;;;;;5076479;28;20025;-71
2023/02/10 07:39:23;;;;;;;33.28;21.48;;;;;;;;;;5058582;28;20033;-72
2023/02/10 07:41:48;;;;;;;30.52;19.83;;;;;;;;;;5058516;28;20043;-71
2023/02/10 07:44:13;;;;;;;35.47;21.85;;;;;;;;;;5058452;28;20471;-71
2023/02/10 07:46:39;;;;;;;39.22;23.63;;;;;;;;;;5076638;28;20095;-72
2023/02/10 07:49:04;;;;;;;40.45;23.52;;;;;;;;;;5076440;28;20410;-72
2023/02/10 07:51:29;;;;;;;34.75;21.33;;;;;;;;;;5058249;28;20024;-72
2023/02/10 07:53:55;;;;;;;36.65;22.40;;;;;;;;;;5076154;28;20028;-74
2023/02/10 07:56:20;;;;;;;25.10;15.00;;;;;;;;;;5076705;28;20036;-74
2023/02/10 07:58:45;;;;;;;22.98;14.18;;;;;;;;;;5076426;28;20025;-72
2023/02/10 08:01:11;;;;;;;28.13;16.40;;;;;;;;;;5076369;28;20032;-72
2023/02/10 08:03:37;;;;;;;22.65;12.90;;;;;;;;;;5076062;28;20042;-71
2023/02/10 08:06:03;;;;;;;24.88;14.80;;;;;;;;;;5076306;28;20028;-72
2023/02/10 08:08:29;;;;;;;24.42;14.68;;;;;;;;;;5076163;28;20032;-73
2023/02/10 08:10:54;;;;;;;25.65;17.20;;;;;;;;;;5075891;28;20390;-72
2023/02/10 08:13:20;;;;;;;22.90;13.60;;;;;;;;;;5076162;28;20028;-72
2023/02/10 08:15:46;;;;;;;23.25;14.68;;;;;;;;;;5057837;28;20090;-71
2023/02/10 08:18:12;;;;;;;23.45;13.88;;;;;;;;;;5057930;28;20067;-70
2023/02/10 08:20:40;;;;;;;24.17;14.13;;;;;;;;;;5074858;28;20064;-72
2023/02/10 08:23:05;;;;;;;20.40;13.10;;;;;;;;;;5057768;28;20039;-72
2023/02/10 08:25:31;;;;;;;18.20;10.68;;;;;;;;;;5075691;28;20394;-72
2023/02/10 08:27:57;;;;;;;21.92;12.48;;;;;;;;;;5057600;28;20029;-72
2023/02/10 08:30:23;;;;;;;27.10;15.40;;;;;;;;;;5075551;28;20037;-72
2023/02/10 08:32:48;;;;;;;22.48;14.93;;;;;;;;;;5075543;28;20043;-72
2023/02/10 08:35:14;;;;;;;16.50;11.27;;;;;;;;;;5057527;28;20044;-72
2023/02/10 08:37:39;;;;;;;20.00;11.75;;;;;;;;;;5075401;28;20032;-71
2023/02/10 08:40:05;;;;;;;18.15;12.15;;;;;;;;;;5075330;28;20039;-72
2023/02/10 08:42:31;;;;;;;19.05;11.18;;;;;;;;;;5076328;28;20040;-76
2023/02/10 08:44:57;;;;;;;19.38;12.20;;;;;;;;;;5076500;28;20029;-74
2023/02/10 08:47:22;;;;;;;20.73;11.80;;;;;;;;;;5041145;28;20067;-74
2023/02/10 08:49:47;;;;;;;18.40;11.90;;;;;;;;;;5075451;28;20056;-74
2023/02/10 08:52:12;;;;;;;17.92;11.35;;;;;;;;;;5075345;28;20115;-74
2023/02/10 08:54:38;;;;;;;18.02;11.82;;;;;;;;;;5075379;28;20051;-74
2023/02/10 08:57:03;;;;;;;18.85;11.75;;;;;;;;;;5075266;28;20097;-74
2023/02/10 08:59:28;;;;;;;18.23;12.40;;;;;;;;;;5074814;28;20483;-74
2023/02/10 09:01:54;;;;;;;19.05;11.98;;;;;;;;;;5074895;28;20032;-74
2023/02/10 09:04:20;;;;;;;17.92;11.82;;;;;;;;;;5075418;28;20051;-74
2023/02/10 09:06:45;;;;;;;12.13;7.35;;;;;;;;;;5074710;28;20390;-74
2023/02/10 09:09:12;;;;;;;15.82;9.77;;;;;;;;;;5074737;28;20382;-74
2023/02/10 09:11:37;;;;;;;16.50;10.50;;;;;;;;;;5074707;28;20386;-74
2023/02/10 09:14:02;;;;;;;18.52;12.30;;;;;;;;;;5074639;28;20112;-74
2023/02/10 09:16:28;;;;;;;19.23;10.43;;;;;;;;;;5040073;28;20035;-74
2023/02/10 09:18:53;;;;;;;16.40;10.25;;;;;;;;;;5074851;28;20119;-74
2023/02/10 09:21:18;;;;;;;18.33;11.43;;;;;;;;;;5074469;28;20447;-74
2023/02/10 09:23:43;;;;;;;16.95;11.07;;;;;;;;;;5074439;28;20047;-74
2023/02/10 09:26:09;;;;;;;18.98;12.15;;;;;;;;;;5039905;28;20021;-74
2023/02/10 09:28:34;;;;;;;18.90;10.95;;;;;;;;;;5056784;28;20078;-75
2023/02/10 09:31:00;;;;;;;14.88;10.80;;;;;;;;;;5074020;28;20046;-75
2023/02/10 09:33:25;;;;;;;18.90;12.30;;;;;;;;;;5074690;28;20028;-75
2023/02/10 09:35:50;;;;;;;19.85;12.10;;;;;;;;;;5074487;28;20055;-75
2023/02/10 09:38:16;;;;;;;15.23;10.43;;;;;;;;;;5074461;28;20033;-74
2023/02/10 09:40:44;;;;;;;18.25;12.10;;;;;;;;;;5055612;28;20036;-75
2023/02/10 09:43:19;;;;;;;13.10;8.10;;;;;;;;;;5066314;23;20065;-75
2023/02/10 09:45:46;;;;;;;15.75;9.70;;;;;;;;;;5077093;23;20396;-72
2023/02/10 09:48:47;;;;;;;18.75;10.77;;;;;;;;;;5074235;28;20036;-71
2023/02/10 09:51:32;;;;;;;19.45;11.15;;;;;;;;;;4973989;28;20031;-72
2023/02/10 09:53:58;;;;;;;9.68;6.63;;;;;;;;;;5044733;28;20443;-75
2023/02/10 09:56:24;;;;;;;16.80;10.07;;;;;;;;;;5073506;23;20060;-72
2023/02/10 09:58:52;;;;;;;17.75;11.02;;;;;;;;;;5060436;22;20053;-72
2023/02/10 10:01:23;;;;;;;19.48;10.73;;;;;;;;;;5054137;28;20078;-72
2023/02/10 10:03:49;;;;;;;19.67;12.30;;;;;;;;;;5054312;28;20029;-73
2023/02/10 10:06:15;;;;;;;13.40;9.63;;;;;;;;;;5053798;28;20033;-70
2023/02/10 10:08:47;;;;;;;19.38;11.98;;;;;;;;;;5036158;28;20061;-72
2023/02/10 10:11:35;;;;;;;12.60;7.68;;;;;;;;;;5054004;28;20470;-71
2023/02/10 10:14:00;;;;;;;17.83;11.48;;;;;;;;;;5053715;28;20033;-72
2023/02/10 10:16:32;;;;;;;18.70;11.60;;;;;;;;;;5053891;28;20017;-72
2023/02/10 10:18:57;;;;;;;17.73;12.43;;;;;;;;;;5053516;28;20068;-71
2023/02/10 10:21:29;;;;;;;22.08;14.10;;;;;;;;;;5053864;28;20052;-71
2023/02/10 10:24:00;;;;;;;18.35;11.60;;;;;;;;;;5035739;28;20123;-71
2023/02/10 10:26:46;;;;;;;16.08;11.07;;;;;;;;;;5036110;28;20398;-71
2023/02/10 10:29:21;;;;;;;15.18;10.63;;;;;;;;;;5053747;28;20047;-71
2023/02/10 10:31:48;;;;;;;16.90;10.10;;;;;;;;;;5019194;28;20056;-72
2023/02/10 10:34:16;;;;;;;15.35;10.95;;;;;;;;;;5053489;28;20009;-72
2023/02/10 10:36:47;;;;;;;17.85;12.38;;;;;;;;;;5036202;28;20033;-72
2023/02/10 10:39:31;;;;;;;15.43;10.70;;;;;;;;;;5035914;28;20033;-72
2023/02/10 10:41:58;;;;;;;16.10;9.98;;;;;;;;;;5019108;28;20029;-72
2023/02/10 10:44:24;;;;;;;16.63;11.75;;;;;;;;;;5056629;28;20095;-71
2023/02/10 10:46:52;;;;;;;14.43;11.07;;;;;;;;;;5057637;28;20040;-72
2023/02/10 10:49:19;;;;;;;14.90;10.45;;;;;;;;;;5057641;28;20025;-71
2023/02/10 10:51:47;;;;;;;16.83;10.05;;;;;;;;;;5057662;28;20028;-72
2023/02/10 10:54:18;;;;;;;15.80;10.57;;;;;;;;;;5057518;28;20033;-71
2023/02/10 10:56:43;;;;;;;;;;;;;;;;;;5023355;28;20025;-72
2023/02/10 10:59:17;;;;;;;20.58;11.65;;;;;;;;;;5057048;28;19918;-75
2023/02/10 11:01:43;;;;;;;19.05;12.13;;;;;;;;;;5022845;28;20119;-74
2023/02/10 11:04:16;;;;;;;18.30;12.63;;;;;;;;;;5039735;28;20452;-75
2023/02/10 11:06:43;;;;;;;23.15;13.30;;;;;;;;;;5039205;28;20391;-75
2023/02/10 11:09:35;;;;;;;21.70;12.90;;;;;;;;;;5023154;28;20041;-75
2023/02/10 11:12:02;;;;;;;19.73;12.00;;;;;;;;;;5052759;28;20067;-75
2023/02/10 11:14:30;;;;;;;19.08;11.73;;;;;;;;;;5057231;28;20017;-75
2023/02/10 11:17:02;;;;;;;19.40;12.20;;;;;;;;;;5057179;28;20456;-75
2023/02/10 11:19:29;;;;;;;14.85;10.60;;;;;;;;;;5057434;28;20406;-76
2023/02/10 11:21:54;;;;;;;14.10;9.57;;;;;;;;;;5057002;28;20067;-75
2023/02/10 11:24:21;;;;;;;19.42;12.50;;;;;;;;;;5039277;28;20033;-74
2023/02/10 11:26:54;;;;;;;18.77;10.55;;;;;;;;;;5057015;28;20043;-75
2023/02/10 11:29:19;;;;;;;18.15;11.38;;;;;;;;;;5039157;28;20047;-75
2023/02/10 11:31:45;;;;;;;18.40;12.13;;;;;;;;;;5038718;28;20112;-76
2023/02/10 11:34:20;;;;;;;17.10;11.60;;;;;;;;;;5039309;28;20071;-75
2023/02/10 11:36:46;;;;;;;20.00;12.30;;;;;;;;;;5057114;28;20439;-75
2023/02/10 11:39:18;;;;;;;18.55;13.30;;;;;;;;;;5056494;28;20061;-75
2023/02/10 11:41:43;;;;;;;21.05;11.82;;;;;;;;;;5056730;28;20064;-74
2023/02/10 11:44:24;;;;;;;15.55;10.00;;;;;;;;;;5056416;28;20459;-76
2023/02/10 11:47:18;;;;;;;18.83;11.60;;;;;;;;;;5056616;28;20033;-75
2023/02/10 11:49:45;;;;;;;16.77;11.55;;;;;;;;;;5052675;28;20077;-75
2023/02/10 11:52:10;;;;;;;19.40;12.20;;;;;;;;;;5039031;28;20104;-75
2023/02/10 11:54:36;;;;;;;18.35;12.48;;;;;;;;;;5038269;28;20431;-76
2023/02/10 12:00:07;;;;;;;17.38;11.23;;;;;;;;;;5038171;28;20372;-75
2023/02/10 12:02:53;;;;;;;21.17;12.68;;;;;;;;;;5056074;28;20444;-75
2023/02/10 12:05:26;;;;;;;23.25;12.77;;;;;;;;;;5038217;28;20536;-74
2023/02/10 12:07:58;;;;;;;22.67;12.82;;;;;;;;;;5038133;28;20372;-74
2023/02/10 12:10:36;;;;;;;19.42;11.80;;;;;;;;;;5055928;28;20407;-74
2023/02/10 12:13:11;;;;;;;23.77;14.50;;;;;;;;;;5068978;23;20139;-70
2023/02/10 12:15:42;;;;;;;19.38;11.23;;;;;;;;;;5037880;28;20021;-70
2023/02/10 12:18:17;;;;;;;19.45;13.32;;;;;;;;;;5055733;28;20482;-71
2023/02/10 12:23:56;;;;;;;26.33;14.23;;;;;;;;;;5090618;23;20083;-72
2023/02/10 12:26:22;;;;;;;18.92;12.93;;;;;;;;;;5028818;28;20041;-71
2023/02/10 12:28:53;;;;;;;24.83;14.40;;;;;;;;;;5018224;28;20030;-71
2023/02/10 12:31:34;;;;;;;21.55;12.48;;;;;;;;;;5017907;28;20040;-72
2023/02/10 12:34:18;;;;;;;21.08;13.52;;;;;;;;;;5018097;28;20036;-72
2023/02/10 12:36:58;;;;;;;23.00;12.75;;;;;;;;;;5036009;28;20112;-73
2023/02/10 12:39:29;;;;;;;29.42;14.95;;;;;;;;;;5035748;28;20086;-72
2023/02/10 12:42:13;;;;;;;34.05;18.63;;;;;;;;;;5035400;28;20484;-72
2023/02/10 12:44:52;;;;;;;20.25;11.48;;;;;;;;;;5035856;28;20057;-72
2023/02/10 12:47:17;;;;;;;24.15;14.23;;;;;;;;;;5034205;28;20041;-72
2023/02/10 12:49:46;;;;;;;27.70;14.43;;;;;;;;;;5001144;28;20055;-72
2023/02/10 12:52:24;;;;;;;20.15;12.50;;;;;;;;;;5001560;28;20120;-71
2023/02/10 12:54:50;;;;;;;21.33;13.05;;;;;;;;;;5017379;28;20460;-73
2023/02/10 12:57:29;;;;;;;21.40;11.98;;;;;;;;;;5035327;28;20112;-72
2023/02/10 13:00:00;;;;;;;20.20;13.50;;;;;;;;;;5017374;28;20045;-72
2023/02/10 13:02:36;;;;;;;19.33;12.90;;;;;;;;;;5035567;28;20098;-72
2023/02/10 13:05:06;;;;;;;25.73;14.18;;;;;;;;;;5035215;28;20065;-71
2023/02/10 13:07:48;;;;;;;19.73;11.00;;;;;;;;;;5034219;28;20037;-72
2023/02/10 13:10:27;;;;;;;24.35;14.57;;;;;;;;;;5035317;28;20113;-72
2023/02/10 13:12:54;;;;;;;26.60;14.65;;;;;;;;;;5035294;28;20025;-72
2023/02/10 13:15:29;;;;;;;19.60;11.55;;;;;;;;;;5035299;28;20104;-72
2023/02/10 13:17:55;;;;;;;21.60;13.38;;;;;;;;;;5017902;28;20171;-73
2023/02/10 13:20:30;;;;;;;24.38;13.90;;;;;;;;;;5016820;28;20029;-71
2023/02/10 13:23:04;;;;;;;22.00;12.82;;;;;;;;;;5034873;28;20486;-72
2023/02/10 13:25:50;;;;;;;24.55;15.00;;;;;;;;;;5013326;28;20038;-72
2023/02/10 13:28:21;;;;;;;19.23;11.57;;;;;;;;;;5013755;28;20058;-72
2023/02/10 13:31:05;;;;;;;23.40;13.57;;;;;;;;;;5015130;28;20034;-72
2023/02/10 13:33:33;;;;;;;22.17;13.23;;;;;;;;;;4997281;28;20149;-72
2023/02/10 13:35:59;;;;;;;19.98;12.32;;;;;;;;;;5015184;28;20022;-72
2023/02/10 13:38:31;;;;;;;23.80;14.73;;;;;;;;;;5014559;28;20526;-72
2023/02/10 13:43:42;;;;;;;19.85;12.15;;;;;;;;;;5033829;28;20033;-72
2023/02/10 13:46:19;;;;;;;20.55;11.65;;;;;;;;;;5034675;28;20083;-71
2023/02/10 13:48:44;;;;;;;23.65;13.90;;;;;;;;;;5034114;28;20025;-72
2023/02/10 13:51:11;;;;;;;26.08;13.68;;;;;;;;;;5034072;28;20384;-68
2023/02/10 13:53:40;;;;;;;20.85;12.32;;;;;;;;;;5016363;28;20092;-70
2023/02/10 13:56:26;;;;;;;19.85;11.70;;;;;;;;;;5034581;28;20017;-70
2023/02/10 13:58:52;;;;;;;23.40;14.38;;;;;;;;;;5034529;28;20033;-70
2023/02/10 14:01:31;;;;;;;20.42;12.45;;;;;;;;;;5016465;28;20029;-70
2023/02/10 14:03:56;;;;;;;17.02;10.98;;;;;;;;;;5014908;28;20491;-68
2023/02/10 14:06:32;;;;;;;19.50;12.10;;;;;;;;;;5034023;28;20095;-69
2023/02/10 14:09:03;;;;;;;19.90;12.45;;;;;;;;;;5014868;28;20394;-68
2023/02/10 14:11:40;;;;;;;17.27;10.88;;;;;;;;;;4998299;28;20037;-71
2023/02/10 14:14:24;;;;;;;17.65;12.20;;;;;;;;;;5032564;28;20049;-71
2023/02/10 14:16:50;;;;;;;21.05;12.90;;;;;;;;;;5032186;28;20021;-70
2023/02/10 14:19:21;;;;;;;16.70;11.30;;;;;;;;;;5011032;28;20041;-70
2023/02/10 14:21:48;;;;;;;19.98;12.77;;;;;;;;;;5014187;28;20030;-72
2023/02/10 14:24:15;;;;;;;22.83;14.07;;;;;;;;;;5013485;28;20034;-67
2023/02/10 14:26:41;;;;;;;16.38;11.05;;;;;;;;;;5014172;28;20040;-73
2023/02/10 14:29:10;;;;;;;20.40;12.77;;;;;;;;;;5000785;28;20033;-71
2023/02/10 14:31:38;;;;;;;13.82;9.70;;;;;;;;;;5033461;28;20028;-73
2023/02/10 14:34:05;;;;;;;17.88;10.40;;;;;;;;;;5015587;28;20033;-71
2023/02/10 14:36:31;;;;;;;18.98;12.57;;;;;;;;;;5015364;28;20069;-71